NCAR-RAP Real-Time Weather Data

Output produced by METARs form (06 December 2016  08:06 UTC)
found at http://weather.rap.ucar.edu/surface/
 
Conditions at: KLOU observed 06 December 2016  07:53 UTC
Temperature: 6.1°C (43°F)
Dewpoint: 4.4°C (40°F) [RH = 89%]
Pressure (altimeter): 29.79 inches Hg (1008.9 mb)
[Sea-level pressure: 1008.7 mb]
Winds: from the NE (40 degrees) at 3 MPH (3 knots; 1.6 m/s)
Visibility: 4 miles (6 km)
Ceiling: 2300 feet AGL
Clouds: broken clouds at 2300 feet AGL
overcast cloud deck at 4900 feet AGL
Present Weather: RA BR  (rain, mist)
KLOU 060753Z 04003KT 4SM RA BR BKN023 OVC049 06/04 A2979 RMK AO2 SLP087 P0005 T00610044